sensor_id;sensor_type;location;lat;lon;timestamp;P1;durP1;ratioP1;P2;durP2;ratioP2
71296;SDS011;59082;50.658;4.608;2022-09-09T00:00:00;5.78;;;1.60;;
71296;SDS011;59082;50.658;4.608;2022-09-09T00:02:28;2.45;;;1.30;;
71296;SDS011;59082;50.658;4.608;2022-09-09T00:12:51;5.13;;;1.38;;
71296;SDS011;59082;50.658;4.608;2022-09-09T00:15:26;3.80;;;1.75;;
71296;SDS011;59082;50.658;4.608;2022-09-09T00:20:45;4.45;;;1.55;;
71296;SDS011;59082;50.658;4.608;2022-09-09T00:23:33;5.72;;;1.42;;
71296;SDS011;59082;50.658;4.608;2022-09-09T00:28:47;5.35;;;1.42;;
71296;SDS011;59082;50.658;4.608;2022-09-09T00:31:20;3.47;;;1.40;;
71296;SDS011;59082;50.658;4.608;2022-09-09T00:33:50;4.95;;;1.60;;
71296;SDS011;59082;50.658;4.608;2022-09-09T00:36:18;4.53;;;1.55;;
71296;SDS011;59082;50.658;4.608;2022-09-09T00:38:55;3.00;;;1.75;;
71296;SDS011;59082;50.658;4.608;2022-09-09T00:41:31;7.53;;;1.75;;
71296;SDS011;59082;50.658;4.608;2022-09-09T00:44:31;3.87;;;1.97;;
71296;SDS011;59082;50.658;4.608;2022-09-09T00:49:47;6.95;;;1.35;;
71296;SDS011;59082;50.658;4.608;2022-09-09T00:57:58;5.00;;;1.37;;
71296;SDS011;59082;50.658;4.608;2022-09-09T01:00:27;4.80;;;1.40;;
71296;SDS011;59082;50.658;4.608;2022-09-09T01:05:39;5.20;;;1.43;;
71296;SDS011;59082;50.658;4.608;2022-09-09T01:11:25;4.15;;;1.70;;
71296;SDS011;59082;50.658;4.608;2022-09-09T01:16:56;4.65;;;1.58;;
71296;SDS011;59082;50.658;4.608;2022-09-09T01:28:13;4.88;;;2.00;;
71296;SDS011;59082;50.658;4.608;2022-09-09T01:30:50;5.78;;;1.00;;
71296;SDS011;59082;50.658;4.608;2022-09-09T01:33:16;4.37;;;1.10;;
71296;SDS011;59082;50.658;4.608;2022-09-09T01:35:55;6.45;;;1.55;;
71296;SDS011;59082;50.658;4.608;2022-09-09T01:38:31;6.95;;;1.33;;
71296;SDS011;59082;50.658;4.608;2022-09-09T01:40:58;5.90;;;1.30;;
71296;SDS011;59082;50.658;4.608;2022-09-09T01:43:24;4.43;;;1.33;;
71296;SDS011;59082;50.658;4.608;2022-09-09T01:45:52;7.20;;;1.38;;
71296;SDS011;59082;50.658;4.608;2022-09-09T01:48:19;6.43;;;1.27;;
71296;SDS011;59082;50.658;4.608;2022-09-09T01:50:47;5.03;;;1.17;;
71296;SDS011;59082;50.658;4.608;2022-09-09T01:53:13;4.57;;;1.00;;
71296;SDS011;59082;50.658;4.608;2022-09-09T01:55:42;8.40;;;1.58;;
71296;SDS011;59082;50.658;4.608;2022-09-09T01:58:20;6.97;;;1.33;;
71296;SDS011;59082;50.658;4.608;2022-09-09T02:02:02;9.63;;;1.85;;
71296;SDS011;59082;50.658;4.608;2022-09-09T02:04:02;6.80;;;1.58;;
71296;SDS011;59082;50.658;4.608;2022-09-09T02:06:34;5.50;;;1.17;;
71296;SDS011;59082;50.658;4.608;2022-09-09T02:09:04;4.03;;;1.40;;
71296;SDS011;59082;50.658;4.608;2022-09-09T02:11:31;4.95;;;1.10;;
71296;SDS011;59082;50.658;4.608;2022-09-09T02:16:38;6.82;;;1.65;;
71296;SDS011;59082;50.658;4.608;2022-09-09T02:19:14;4.53;;;1.27;;
71296;SDS011;59082;50.658;4.608;2022-09-09T02:21:48;7.53;;;1.33;;
71296;SDS011;59082;50.658;4.608;2022-09-09T02:24:15;10.82;;;2.42;;
71296;SDS011;59082;50.658;4.608;2022-09-09T02:26:42;9.88;;;1.42;;
71296;SDS011;59082;50.658;4.608;2022-09-09T02:29:12;6.28;;;1.05;;
71296;SDS011;59082;50.658;4.608;2022-09-09T02:31:41;5.50;;;1.83;;
71296;SDS011;59082;50.658;4.608;2022-09-09T02:34:10;11.15;;;1.75;;
71296;SDS011;59082;50.658;4.608;2022-09-09T02:36:38;5.28;;;1.60;;
71296;SDS011;59082;50.658;4.608;2022-09-09T02:39:08;3.53;;;1.45;;
71296;SDS011;59082;50.658;4.608;2022-09-09T02:41:36;6.35;;;1.30;;
71296;SDS011;59082;50.658;4.608;2022-09-09T02:44:14;8.07;;;1.30;;
71296;SDS011;59082;50.658;4.608;2022-09-09T02:49:44;5.70;;;1.85;;
71296;SDS011;59082;50.658;4.608;2022-09-09T02:52:46;5.53;;;1.75;;
71296;SDS011;59082;50.658;4.608;2022-09-09T02:58:04;8.47;;;1.30;;
71296;SDS011;59082;50.658;4.608;2022-09-09T03:00:33;13.63;;;2.45;;
71296;SDS011;59082;50.658;4.608;2022-09-09T03:03:01;8.77;;;2.08;;
71296;SDS011;59082;50.658;4.608;2022-09-09T03:05:30;6.78;;;1.63;;
71296;SDS011;59082;50.658;4.608;2022-09-09T03:07:55;10.50;;;1.90;;
71296;SDS011;59082;50.658;4.608;2022-09-09T03:10:21;4.45;;;1.67;;
71296;SDS011;59082;50.658;4.608;2022-09-09T03:12:47;13.90;;;2.30;;
71296;SDS011;59082;50.658;4.608;2022-09-09T03:15:12;6.37;;;1.40;;
71296;SDS011;59082;50.658;4.608;2022-09-09T03:17:40;6.70;;;1.33;;
71296;SDS011;59082;50.658;4.608;2022-09-09T03:20:06;7.18;;;1.38;;
71296;SDS011;59082;50.658;4.608;2022-09-09T03:22:32;6.22;;;2.53;;
71296;SDS011;59082;50.658;4.608;2022-09-09T03:24:58;9.27;;;1.90;;
71296;SDS011;59082;50.658;4.608;2022-09-09T03:27:23;5.57;;;1.83;;
71296;SDS011;59082;50.658;4.608;2022-09-09T03:29:49;9.80;;;2.10;;
71296;SDS011;59082;50.658;4.608;2022-09-09T03:32:16;7.18;;;1.90;;
71296;SDS011;59082;50.658;4.608;2022-09-09T03:34:42;6.78;;;1.70;;
71296;SDS011;59082;50.658;4.608;2022-09-09T03:37:08;3.77;;;1.40;;
71296;SDS011;59082;50.658;4.608;2022-09-09T03:39:34;6.20;;;1.80;;
71296;SDS011;59082;50.658;4.608;2022-09-09T03:41:59;10.17;;;2.27;;
71296;SDS011;59082;50.658;4.608;2022-09-09T03:44:29;3.28;;;1.35;;
71296;SDS011;59082;50.658;4.608;2022-09-09T03:46:55;6.88;;;2.20;;
71296;SDS011;59082;50.658;4.608;2022-09-09T03:49:20;6.60;;;2.40;;
71296;SDS011;59082;50.658;4.608;2022-09-09T03:51:47;8.75;;;1.83;;
71296;SDS011;59082;50.658;4.608;2022-09-09T03:54:12;6.33;;;1.67;;
71296;SDS011;59082;50.658;4.608;2022-09-09T03:56:38;4.37;;;1.40;;
71296;SDS011;59082;50.658;4.608;2022-09-09T03:59:04;9.98;;;1.60;;
71296;SDS011;59082;50.658;4.608;2022-09-09T04:01:30;9.37;;;1.77;;
71296;SDS011;59082;50.658;4.608;2022-09-09T04:03:55;5.43;;;1.57;;
71296;SDS011;59082;50.658;4.608;2022-09-09T04:06:23;10.80;;;2.60;;
71296;SDS011;59082;50.658;4.608;2022-09-09T04:08:49;10.23;;;2.85;;
71296;SDS011;59082;50.658;4.608;2022-09-09T04:11:17;5.80;;;1.90;;
71296;SDS011;59082;50.658;4.608;2022-09-09T04:13:42;12.63;;;2.00;;
71296;SDS011;59082;50.658;4.608;2022-09-09T04:16:09;5.53;;;1.70;;
71296;SDS011;59082;50.658;4.608;2022-09-09T04:18:38;8.60;;;2.08;;
71296;SDS011;59082;50.658;4.608;2022-09-09T04:21:04;6.68;;;2.53;;
71296;SDS011;59082;50.658;4.608;2022-09-09T04:23:31;9.80;;;2.53;;
71296;SDS011;59082;50.658;4.608;2022-09-09T04:25:58;6.97;;;2.30;;
71296;SDS011;59082;50.658;4.608;2022-09-09T04:28:25;7.90;;;2.22;;
71296;SDS011;59082;50.658;4.608;2022-09-09T04:30:53;6.28;;;1.60;;
71296;SDS011;59082;50.658;4.608;2022-09-09T04:33:18;7.17;;;2.30;;
71296;SDS011;59082;50.658;4.608;2022-09-09T04:35:45;9.32;;;2.47;;
71296;SDS011;59082;50.658;4.608;2022-09-09T04:38:12;6.55;;;2.22;;
71296;SDS011;59082;50.658;4.608;2022-09-09T04:40:37;12.97;;;2.27;;
71296;SDS011;59082;50.658;4.608;2022-09-09T04:43:08;7.28;;;2.45;;
71296;SDS011;59082;50.658;4.608;2022-09-09T04:45:34;8.85;;;1.90;;
71296;SDS011;59082;50.658;4.608;2022-09-09T04:47:59;8.00;;;2.03;;
71296;SDS011;59082;50.658;4.608;2022-09-09T04:50:25;4.72;;;2.10;;
71296;SDS011;59082;50.658;4.608;2022-09-09T04:52:50;8.37;;;3.10;;
71296;SDS011;59082;50.658;4.608;2022-09-09T04:55:16;9.83;;;2.70;;
71296;SDS011;59082;50.658;4.608;2022-09-09T04:57:41;10.73;;;2.80;;
71296;SDS011;59082;50.658;4.608;2022-09-09T05:00:08;11.30;;;2.50;;
71296;SDS011;59082;50.658;4.608;2022-09-09T05:02:37;7.40;;;2.43;;
71296;SDS011;59082;50.658;4.608;2022-09-09T05:05:03;5.53;;;2.08;;
71296;SDS011;59082;50.658;4.608;2022-09-09T05:07:30;7.28;;;2.30;;
71296;SDS011;59082;50.658;4.608;2022-09-09T05:09:56;12.90;;;2.55;;
71296;SDS011;59082;50.658;4.608;2022-09-09T05:12:22;10.10;;;2.37;;
71296;SDS011;59082;50.658;4.608;2022-09-09T05:14:49;5.38;;;1.92;;
71296;SDS011;59082;50.658;4.608;2022-09-09T05:17:15;9.35;;;2.22;;
71296;SDS011;59082;50.658;4.608;2022-09-09T05:19:41;8.80;;;2.22;;
71296;SDS011;59082;50.658;4.608;2022-09-09T05:22:08;4.82;;;2.17;;
71296;SDS011;59082;50.658;4.608;2022-09-09T05:24:33;8.87;;;2.43;;
71296;SDS011;59082;50.658;4.608;2022-09-09T05:26:59;8.87;;;1.87;;
71296;SDS011;59082;50.658;4.608;2022-09-09T05:29:27;6.05;;;1.45;;
71296;SDS011;59082;50.658;4.608;2022-09-09T05:31:53;8.05;;;1.75;;
71296;SDS011;59082;50.658;4.608;2022-09-09T05:34:18;7.10;;;1.97;;
71296;SDS011;59082;50.658;4.608;2022-09-09T05:36:45;8.82;;;2.00;;
71296;SDS011;59082;50.658;4.608;2022-09-09T05:39:11;7.57;;;1.83;;
71296;SDS011;59082;50.658;4.608;2022-09-09T05:41:37;9.17;;;2.07;;
71296;SDS011;59082;50.658;4.608;2022-09-09T05:44:03;8.20;;;2.40;;
71296;SDS011;59082;50.658;4.608;2022-09-09T05:46:28;6.77;;;1.73;;
71296;SDS011;59082;50.658;4.608;2022-09-09T05:48:54;9.82;;;2.05;;
71296;SDS011;59082;50.658;4.608;2022-09-09T05:51:20;6.80;;;2.37;;
71296;SDS011;59082;50.658;4.608;2022-09-09T05:53:49;7.75;;;1.65;;
71296;SDS011;59082;50.658;4.608;2022-09-09T05:56:16;6.57;;;1.88;;
71296;SDS011;59082;50.658;4.608;2022-09-09T05:58:53;5.00;;;1.55;;
71296;SDS011;59082;50.658;4.608;2022-09-09T06:01:19;6.73;;;1.77;;
71296;SDS011;59082;50.658;4.608;2022-09-09T06:03:47;6.18;;;1.73;;
71296;SDS011;59082;50.658;4.608;2022-09-09T06:06:18;6.20;;;1.80;;
71296;SDS011;59082;50.658;4.608;2022-09-09T06:08:46;8.35;;;1.40;;
71296;SDS011;59082;50.658;4.608;2022-09-09T06:11:16;7.43;;;1.93;;
71296;SDS011;59082;50.658;4.608;2022-09-09T06:13:41;5.07;;;1.83;;
71296;SDS011;59082;50.658;4.608;2022-09-09T06:16:09;6.88;;;2.17;;
71296;SDS011;59082;50.658;4.608;2022-09-09T06:18:40;4.25;;;1.48;;
71296;SDS011;59082;50.658;4.608;2022-09-09T06:21:07;7.00;;;1.37;;
71296;SDS011;59082;50.658;4.608;2022-09-09T06:23:40;7.43;;;1.20;;
71296;SDS011;59082;50.658;4.608;2022-09-09T06:26:07;10.05;;;2.13;;
71296;SDS011;59082;50.658;4.608;2022-09-09T06:28:35;7.93;;;1.83;;
71296;SDS011;59082;50.658;4.608;2022-09-09T06:31:05;5.95;;;1.23;;
71296;SDS011;59082;50.658;4.608;2022-09-09T06:33:33;8.60;;;1.25;;
71296;SDS011;59082;50.658;4.608;2022-09-09T06:36:04;6.88;;;1.50;;
71296;SDS011;59082;50.658;4.608;2022-09-09T06:38:30;7.63;;;1.77;;
71296;SDS011;59082;50.658;4.608;2022-09-09T06:40:57;4.90;;;1.77;;
71296;SDS011;59082;50.658;4.608;2022-09-09T06:43:27;5.43;;;1.35;;
71296;SDS011;59082;50.658;4.608;2022-09-09T06:45:54;9.02;;;1.40;;
71296;SDS011;59082;50.658;4.608;2022-09-09T06:48:19;8.98;;;1.75;;
71296;SDS011;59082;50.658;4.608;2022-09-09T06:50:45;4.43;;;1.33;;
71296;SDS011;59082;50.658;4.608;2022-09-09T06:53:11;5.13;;;2.05;;
71296;SDS011;59082;50.658;4.608;2022-09-09T06:55:37;8.20;;;1.43;;
71296;SDS011;59082;50.658;4.608;2022-09-09T06:58:02;6.77;;;1.13;;
71296;SDS011;59082;50.658;4.608;2022-09-09T07:00:33;9.75;;;2.15;;
71296;SDS011;59082;50.658;4.608;2022-09-09T07:02:59;8.75;;;1.55;;
71296;SDS011;59082;50.658;4.608;2022-09-09T07:05:24;3.60;;;1.17;;
71296;SDS011;59082;50.658;4.608;2022-09-09T07:07:51;6.18;;;1.15;;
71296;SDS011;59082;50.658;4.608;2022-09-09T07:10:17;6.60;;;1.20;;
71296;SDS011;59082;50.658;4.608;2022-09-09T07:12:42;5.35;;;1.20;;
71296;SDS011;59082;50.658;4.608;2022-09-09T07:15:08;4.20;;;1.43;;
71296;SDS011;59082;50.658;4.608;2022-09-09T07:17:34;3.40;;;1.40;;
71296;SDS011;59082;50.658;4.608;2022-09-09T07:20:00;7.90;;;1.57;;
71296;SDS011;59082;50.658;4.608;2022-09-09T07:22:27;6.97;;;1.63;;
71296;SDS011;59082;50.658;4.608;2022-09-09T07:24:53;7.30;;;1.35;;
71296;SDS011;59082;50.658;4.608;2022-09-09T07:27:19;7.10;;;1.53;;
71296;SDS011;59082;50.658;4.608;2022-09-09T07:29:44;8.35;;;1.50;;
71296;SDS011;59082;50.658;4.608;2022-09-09T07:32:10;7.60;;;1.60;;
71296;SDS011;59082;50.658;4.608;2022-09-09T07:34:36;7.88;;;1.40;;
71296;SDS011;59082;50.658;4.608;2022-09-09T07:37:01;9.97;;;1.60;;
71296;SDS011;59082;50.658;4.608;2022-09-09T07:39:27;7.70;;;1.70;;
71296;SDS011;59082;50.658;4.608;2022-09-09T07:41:53;7.63;;;1.77;;
71296;SDS011;59082;50.658;4.608;2022-09-09T07:44:23;6.18;;;1.48;;
71296;SDS011;59082;50.658;4.608;2022-09-09T07:46:52;9.85;;;1.95;;
71296;SDS011;59082;50.658;4.608;2022-09-09T07:49:17;6.10;;;1.27;;
71296;SDS011;59082;50.658;4.608;2022-09-09T07:51:43;5.30;;;1.30;;
71296;SDS011;59082;50.658;4.608;2022-09-09T07:54:11;4.72;;;1.63;;
71296;SDS011;59082;50.658;4.608;2022-09-09T07:56:39;6.25;;;1.40;;
71296;SDS011;59082;50.658;4.608;2022-09-09T07:59:05;8.80;;;1.33;;
71296;SDS011;59082;50.658;4.608;2022-09-09T08:01:33;4.18;;;1.08;;
71296;SDS011;59082;50.658;4.608;2022-09-09T08:04:21;6.10;;;1.30;;
71296;SDS011;59082;50.658;4.608;2022-09-09T08:09:14;4.35;;;1.80;;
71296;SDS011;59082;50.658;4.608;2022-09-09T08:11:40;9.18;;;1.90;;
71296;SDS011;59082;50.658;4.608;2022-09-09T08:14:07;8.13;;;1.75;;
71296;SDS011;59082;50.658;4.608;2022-09-09T08:16:35;5.57;;;1.17;;
71296;SDS011;59082;50.658;4.608;2022-09-09T08:19:03;5.03;;;1.05;;
71296;SDS011;59082;50.658;4.608;2022-09-09T08:21:31;6.25;;;1.40;;
71296;SDS011;59082;50.658;4.608;2022-09-09T08:23:59;7.20;;;1.30;;
71296;SDS011;59082;50.658;4.608;2022-09-09T08:26:29;4.93;;;1.15;;
71296;SDS011;59082;50.658;4.608;2022-09-09T08:28:57;5.40;;;0.93;;
71296;SDS011;59082;50.658;4.608;2022-09-09T08:31:25;4.43;;;1.55;;
71296;SDS011;59082;50.658;4.608;2022-09-09T08:33:51;6.40;;;1.10;;
71296;SDS011;59082;50.658;4.608;2022-09-09T08:36:17;3.83;;;1.43;;
71296;SDS011;59082;50.658;4.608;2022-09-09T08:38:49;4.63;;;1.45;;
71296;SDS011;59082;50.658;4.608;2022-09-09T08:43:47;8.43;;;1.48;;
71296;SDS011;59082;50.658;4.608;2022-09-09T08:46:19;7.17;;;1.30;;
71296;SDS011;59082;50.658;4.608;2022-09-09T08:49:13;8.93;;;1.33;;
71296;SDS011;59082;50.658;4.608;2022-09-09T08:51:41;5.68;;;1.38;;
71296;SDS011;59082;50.658;4.608;2022-09-09T08:54:07;5.87;;;1.83;;
71296;SDS011;59082;50.658;4.608;2022-09-09T08:56:35;6.38;;;1.55;;
71296;SDS011;59082;50.658;4.608;2022-09-09T08:59:01;11.55;;;1.90;;
71296;SDS011;59082;50.658;4.608;2022-09-09T09:07:14;7.50;;;1.53;;
71296;SDS011;59082;50.658;4.608;2022-09-09T09:12:33;4.30;;;2.10;;
71296;SDS011;59082;50.658;4.608;2022-09-09T09:15:05;4.22;;;1.83;;
71296;SDS011;59082;50.658;4.608;2022-09-09T09:17:42;8.82;;;2.30;;
71296;SDS011;59082;50.658;4.608;2022-09-09T09:20:12;6.43;;;2.27;;
71296;SDS011;59082;50.658;4.608;2022-09-09T09:22:49;9.40;;;3.20;;
71296;SDS011;59082;50.658;4.608;2022-09-09T09:25:23;6.40;;;1.80;;
71296;SDS011;59082;50.658;4.608;2022-09-09T09:28:17;4.35;;;1.73;;
71296;SDS011;59082;50.658;4.608;2022-09-09T09:30:59;4.97;;;2.50;;
71296;SDS011;59082;50.658;4.608;2022-09-09T09:33:35;5.27;;;1.97;;
71296;SDS011;59082;50.658;4.608;2022-09-09T09:36:15;8.10;;;2.13;;
71296;SDS011;59082;50.658;4.608;2022-09-09T09:39:00;6.47;;;1.50;;
71296;SDS011;59082;50.658;4.608;2022-09-09T09:44:04;6.22;;;2.15;;
71296;SDS011;59082;50.658;4.608;2022-09-09T09:46:30;5.70;;;2.70;;
71296;SDS011;59082;50.658;4.608;2022-09-09T09:49:08;8.70;;;2.75;;
71296;SDS011;59082;50.658;4.608;2022-09-09T09:51:34;6.50;;;2.83;;
71296;SDS011;59082;50.658;4.608;2022-09-09T09:56:40;7.35;;;2.22;;
71296;SDS011;59082;50.658;4.608;2022-09-09T09:59:19;5.77;;;2.40;;
71296;SDS011;59082;50.658;4.608;2022-09-09T10:01:46;9.20;;;2.50;;
71296;SDS011;59082;50.658;4.608;2022-09-09T10:04:19;7.93;;;2.80;;
71296;SDS011;59082;50.658;4.608;2022-09-09T10:06:48;7.53;;;2.70;;
71296;SDS011;59082;50.658;4.608;2022-09-09T10:09:21;9.65;;;2.70;;
71296;SDS011;59082;50.658;4.608;2022-09-09T10:11:57;7.13;;;2.90;;
71296;SDS011;59082;50.658;4.608;2022-09-09T10:18:22;9.18;;;2.28;;
71296;SDS011;59082;50.658;4.608;2022-09-09T10:20:43;4.37;;;2.40;;
71296;SDS011;59082;50.658;4.608;2022-09-09T10:43:23;7.65;;;2.45;;
71296;SDS011;59082;50.658;4.608;2022-09-09T10:46:26;6.00;;;2.42;;
71296;SDS011;59082;50.658;4.608;2022-09-09T10:51:36;7.53;;;2.00;;
71296;SDS011;59082;50.658;4.608;2022-09-09T10:54:17;6.40;;;1.98;;
71296;SDS011;59082;50.658;4.608;2022-09-09T10:56:58;5.80;;;2.47;;
71296;SDS011;59082;50.658;4.608;2022-09-09T10:59:29;4.70;;;1.50;;
71296;SDS011;59082;50.658;4.608;2022-09-09T11:02:25;9.50;;;2.27;;
71296;SDS011;59082;50.658;4.608;2022-09-09T11:07:29;10.25;;;2.13;;
71296;SDS011;59082;50.658;4.608;2022-09-09T11:10:02;6.68;;;2.15;;
71296;SDS011;59082;50.658;4.608;2022-09-09T11:12:36;4.03;;;1.65;;
71296;SDS011;59082;50.658;4.608;2022-09-09T11:17:46;6.35;;;1.65;;
71296;SDS011;59082;50.658;4.608;2022-09-09T11:20:17;7.47;;;2.20;;
71296;SDS011;59082;50.658;4.608;2022-09-09T11:22:54;6.40;;;1.50;;
71296;SDS011;59082;50.658;4.608;2022-09-09T11:25:26;6.30;;;1.80;;
71296;SDS011;59082;50.658;4.608;2022-09-09T11:30:47;6.10;;;1.45;;
71296;SDS011;59082;50.658;4.608;2022-09-09T11:44:44;6.88;;;1.88;;
71296;SDS011;59082;50.658;4.608;2022-09-09T11:47:19;7.13;;;1.92;;
71296;SDS011;59082;50.658;4.608;2022-09-09T11:49:54;6.23;;;1.40;;
71296;SDS011;59082;50.658;4.608;2022-09-09T11:52:41;6.95;;;2.58;;
71296;SDS011;59082;50.658;4.608;2022-09-09T11:55:26;6.68;;;2.42;;
71296;SDS011;59082;50.658;4.608;2022-09-09T11:57:58;4.55;;;1.80;;
71296;SDS011;59082;50.658;4.608;2022-09-09T12:00:33;4.75;;;2.15;;
71296;SDS011;59082;50.658;4.608;2022-09-09T12:03:05;6.00;;;2.10;;
71296;SDS011;59082;50.658;4.608;2022-09-09T12:05:44;5.97;;;2.00;;
71296;SDS011;59082;50.658;4.608;2022-09-09T12:08:11;5.90;;;2.08;;
71296;SDS011;59082;50.658;4.608;2022-09-09T12:10:52;7.70;;;2.78;;
71296;SDS011;59082;50.658;4.608;2022-09-09T12:13:21;10.55;;;2.35;;
71296;SDS011;59082;50.658;4.608;2022-09-09T12:15:49;4.13;;;1.87;;
71296;SDS011;59082;50.658;4.608;2022-09-09T12:18:31;6.15;;;1.63;;
71296;SDS011;59082;50.658;4.608;2022-09-09T12:23:37;6.88;;;2.80;;
71296;SDS011;59082;50.658;4.608;2022-09-09T12:26:25;2.70;;;1.23;;
71296;SDS011;59082;50.658;4.608;2022-09-09T12:31:31;2.75;;;1.13;;
71296;SDS011;59082;50.658;4.608;2022-09-09T12:36:55;3.90;;;1.17;;
71296;SDS011;59082;50.658;4.608;2022-09-09T12:39:29;3.72;;;1.42;;
71296;SDS011;59082;50.658;4.608;2022-09-09T12:42:16;5.90;;;1.93;;
71296;SDS011;59082;50.658;4.608;2022-09-09T12:45:01;6.80;;;1.38;;
71296;SDS011;59082;50.658;4.608;2022-09-09T12:47:30;6.07;;;1.50;;
71296;SDS011;59082;50.658;4.608;2022-09-09T12:50:29;3.03;;;1.50;;
71296;SDS011;59082;50.658;4.608;2022-09-09T12:53:01;3.10;;;1.15;;
71296;SDS011;59082;50.658;4.608;2022-09-09T12:55:30;3.60;;;1.33;;
71296;SDS011;59082;50.658;4.608;2022-09-09T12:57:58;3.88;;;0.80;;
71296;SDS011;59082;50.658;4.608;2022-09-09T13:00:26;5.40;;;0.90;;
71296;SDS011;59082;50.658;4.608;2022-09-09T13:02:57;4.28;;;1.40;;
71296;SDS011;59082;50.658;4.608;2022-09-09T13:05:27;3.75;;;1.10;;
71296;SDS011;59082;50.658;4.608;2022-09-09T13:08:01;2.00;;;1.13;;
71296;SDS011;59082;50.658;4.608;2022-09-09T13:10:33;1.77;;;0.60;;
71296;SDS011;59082;50.658;4.608;2022-09-09T13:13:25;4.35;;;0.98;;
71296;SDS011;59082;50.658;4.608;2022-09-09T13:15:57;4.45;;;1.00;;
71296;SDS011;59082;50.658;4.608;2022-09-09T13:18:28;4.28;;;0.80;;
71296;SDS011;59082;50.658;4.608;2022-09-09T13:20:57;3.50;;;0.87;;
71296;SDS011;59082;50.658;4.608;2022-09-09T13:23:24;2.38;;;0.80;;
71296;SDS011;59082;50.658;4.608;2022-09-09T13:25:55;2.80;;;0.95;;
71296;SDS011;59082;50.658;4.608;2022-09-09T13:28:26;4.35;;;1.58;;
71296;SDS011;59082;50.658;4.608;2022-09-09T13:30:57;2.85;;;1.02;;
71296;SDS011;59082;50.658;4.608;2022-09-09T13:33:34;4.40;;;1.20;;
71296;SDS011;59082;50.658;4.608;2022-09-09T13:36:06;2.47;;;0.65;;
71296;SDS011;59082;50.658;4.608;2022-09-09T13:39:16;2.35;;;0.90;;
71296;SDS011;59082;50.658;4.608;2022-09-09T13:43:58;4.15;;;0.65;;
71296;SDS011;59082;50.658;4.608;2022-09-09T13:49:18;3.47;;;1.38;;
71296;SDS011;59082;50.658;4.608;2022-09-09T13:51:43;3.08;;;0.98;;
71296;SDS011;59082;50.658;4.608;2022-09-09T13:54:12;1.67;;;0.50;;
71296;SDS011;59082;50.658;4.608;2022-09-09T13:56:40;2.38;;;0.93;;
71296;SDS011;59082;50.658;4.608;2022-09-09T13:59:11;2.37;;;0.80;;
71296;SDS011;59082;50.658;4.608;2022-09-09T14:01:38;4.38;;;1.42;;
71296;SDS011;59082;50.658;4.608;2022-09-09T14:04:03;2.00;;;0.90;;
71296;SDS011;59082;50.658;4.608;2022-09-09T14:06:31;4.95;;;0.98;;
71296;SDS011;59082;50.658;4.608;2022-09-09T14:08:57;2.75;;;1.23;;
71296;SDS011;59082;50.658;4.608;2022-09-09T14:11:24;3.03;;;1.15;;
71296;SDS011;59082;50.658;4.608;2022-09-09T14:13:49;4.60;;;1.40;;
71296;SDS011;59082;50.658;4.608;2022-09-09T14:16:15;4.18;;;1.25;;
71296;SDS011;59082;50.658;4.608;2022-09-09T14:18:42;2.63;;;1.10;;
71296;SDS011;59082;50.658;4.608;2022-09-09T14:21:09;2.15;;;1.10;;
71296;SDS011;59082;50.658;4.608;2022-09-09T14:23:35;2.47;;;1.27;;
71296;SDS011;59082;50.658;4.608;2022-09-09T14:26:00;2.47;;;0.60;;
71296;SDS011;59082;50.658;4.608;2022-09-09T14:28:26;2.63;;;1.07;;
71296;SDS011;59082;50.658;4.608;2022-09-09T14:30:53;4.78;;;1.02;;
71296;SDS011;59082;50.658;4.608;2022-09-09T14:33:19;2.63;;;0.90;;
71296;SDS011;59082;50.658;4.608;2022-09-09T14:35:44;3.97;;;0.80;;
71296;SDS011;59082;50.658;4.608;2022-09-09T14:38:10;4.53;;;0.80;;
71296;SDS011;59082;50.658;4.608;2022-09-09T14:40:36;2.07;;;0.70;;
71296;SDS011;59082;50.658;4.608;2022-09-09T14:43:02;2.95;;;1.10;;
71296;SDS011;59082;50.658;4.608;2022-09-09T14:45:29;5.45;;;1.08;;
71296;SDS011;59082;50.658;4.608;2022-09-09T14:47:54;2.73;;;0.67;;
71296;SDS011;59082;50.658;4.608;2022-09-09T14:50:21;1.55;;;0.50;;
71296;SDS011;59082;50.658;4.608;2022-09-09T14:52:47;2.10;;;0.93;;
71296;SDS011;59082;50.658;4.608;2022-09-09T14:55:13;5.20;;;0.70;;
71296;SDS011;59082;50.658;4.608;2022-09-09T14:57:40;5.28;;;1.75;;
71296;SDS011;59082;50.658;4.608;2022-09-09T15:00:06;3.80;;;0.68;;
71296;SDS011;59082;50.658;4.608;2022-09-09T15:02:33;2.85;;;0.47;;
71296;SDS011;59082;50.658;4.608;2022-09-09T15:04:59;4.33;;;0.43;;
71296;SDS011;59082;50.658;4.608;2022-09-09T15:07:25;2.53;;;0.47;;
71296;SDS011;59082;50.658;4.608;2022-09-09T15:09:52;3.42;;;0.80;;
71296;SDS011;59082;50.658;4.608;2022-09-09T15:12:18;2.15;;;0.63;;
71296;SDS011;59082;50.658;4.608;2022-09-09T15:14:44;2.30;;;0.50;;
71296;SDS011;59082;50.658;4.608;2022-09-09T15:17:10;4.18;;;1.30;;
71296;SDS011;59082;50.658;4.608;2022-09-09T15:19:36;3.13;;;0.90;;
71296;SDS011;59082;50.658;4.608;2022-09-09T15:22:02;3.33;;;0.63;;
71296;SDS011;59082;50.658;4.608;2022-09-09T15:24:31;1.60;;;0.53;;
71296;SDS011;59082;50.658;4.608;2022-09-09T15:26:57;4.32;;;2.00;;
71296;SDS011;59082;50.658;4.608;2022-09-09T15:29:22;2.97;;;1.45;;
71296;SDS011;59082;50.658;4.608;2022-09-09T15:31:48;3.87;;;1.30;;
71296;SDS011;59082;50.658;4.608;2022-09-09T15:34:14;2.35;;;1.98;;
71296;SDS011;59082;50.658;4.608;2022-09-09T15:36:43;2.53;;;1.70;;
71296;SDS011;59082;50.658;4.608;2022-09-09T15:39:11;2.45;;;0.95;;
71296;SDS011;59082;50.658;4.608;2022-09-09T15:41:41;3.50;;;1.33;;
71296;SDS011;59082;50.658;4.608;2022-09-09T15:44:08;4.55;;;0.52;;
71296;SDS011;59082;50.658;4.608;2022-09-09T15:46:37;1.93;;;0.20;;
